sensor_id;sensor_type;location;lat;lon;timestamp;pressure;altitude;pressure_sealevel;temperature;humidity
79671;BME280;69137;50.878;8.050;2023-12-07T00:00:05;98529.88;;;0.77;100.00
79671;BME280;69137;50.878;8.050;2023-12-07T00:02:30;98531.97;;;0.82;100.00
79671;BME280;69137;50.878;8.050;2023-12-07T00:04:56;98540.22;;;0.80;100.00
79671;BME280;69137;50.878;8.050;2023-12-07T00:07:21;98535.28;;;0.84;100.00
79671;BME280;69137;50.878;8.050;2023-12-07T00:09:46;98542.91;;;0.80;100.00
79671;BME280;69137;50.878;8.050;2023-12-07T00:12:12;98548.28;;;0.80;100.00
79671;BME280;69137;50.878;8.050;2023-12-07T00:14:37;98535.94;;;0.86;100.00
79671;BME280;69137;50.878;8.050;2023-12-07T00:17:03;98546.44;;;0.81;100.00
79671;BME280;69137;50.878;8.050;2023-12-07T00:19:28;98549.16;;;0.87;99.95
79671;BME280;69137;50.878;8.050;2023-12-07T00:21:53;98545.59;;;0.80;99.89
79671;BME280;69137;50.878;8.050;2023-12-07T00:24:19;98550.19;;;0.86;100.00
79671;BME280;69137;50.878;8.050;2023-12-07T00:26:44;98546.47;;;0.87;99.23
79671;BME280;69137;50.878;8.050;2023-12-07T00:29:09;98544.78;;;0.80;99.62
79671;BME280;69137;50.878;8.050;2023-12-07T00:31:35;98551.78;;;0.74;99.27
79671;BME280;69137;50.878;8.050;2023-12-07T00:34:00;98553.00;;;0.72;99.81
79671;BME280;69137;50.878;8.050;2023-12-07T00:36:26;98548.03;;;0.69;100.00
79671;BME280;69137;50.878;8.050;2023-12-07T00:38:51;98551.91;;;0.59;100.00
79671;BME280;69137;50.878;8.050;2023-12-07T00:41:16;98542.59;;;0.55;99.88
79671;BME280;69137;50.878;8.050;2023-12-07T00:43:42;98547.28;;;0.47;99.94
79671;BME280;69137;50.878;8.050;2023-12-07T00:46:08;98554.53;;;0.46;99.78
79671;BME280;69137;50.878;8.050;2023-12-07T00:48:33;98557.25;;;0.53;99.25
79671;BME280;69137;50.878;8.050;2023-12-07T00:50:58;98570.25;;;0.49;99.52
79671;BME280;69137;50.878;8.050;2023-12-07T00:53:24;98561.94;;;0.44;99.76
79671;BME280;69137;50.878;8.050;2023-12-07T00:55:49;98565.66;;;0.36;100.00
79671;BME280;69137;50.878;8.050;2023-12-07T00:58:15;98561.09;;;0.37;100.00
79671;BME280;69137;50.878;8.050;2023-12-07T01:00:40;98562.72;;;0.31;100.00
79671;BME280;69137;50.878;8.050;2023-12-07T01:03:05;98559.16;;;0.31;100.00
79671;BME280;69137;50.878;8.050;2023-12-07T01:05:31;98555.50;;;0.38;100.00
79671;BME280;69137;50.878;8.050;2023-12-07T01:07:57;98558.41;;;0.37;100.00
79671;BME280;69137;50.878;8.050;2023-12-07T01:10:22;98571.84;;;0.37;100.00
79671;BME280;69137;50.878;8.050;2023-12-07T01:12:48;98571.22;;;0.41;100.00
79671;BME280;69137;50.878;8.050;2023-12-07T01:15:14;98564.22;;;0.40;100.00
79671;BME280;69137;50.878;8.050;2023-12-07T01:17:40;98567.22;;;0.31;100.00
79671;BME280;69137;50.878;8.050;2023-12-07T01:20:06;98573.31;;;0.39;100.00
79671;BME280;69137;50.878;8.050;2023-12-07T01:22:37;98572.28;;;0.40;100.00
79671;BME280;69137;50.878;8.050;2023-12-07T01:25:03;98576.84;;;0.47;100.00
79671;BME280;69137;50.878;8.050;2023-12-07T01:27:28;98573.56;;;0.45;100.00
79671;BME280;69137;50.878;8.050;2023-12-07T01:29:54;98582.44;;;0.45;100.00
79671;BME280;69137;50.878;8.050;2023-12-07T01:32:19;98575.63;;;0.49;100.00
79671;BME280;69137;50.878;8.050;2023-12-07T01:34:44;98572.50;;;0.46;100.00
79671;BME280;69137;50.878;8.050;2023-12-07T01:37:10;98582.44;;;0.45;100.00
79671;BME280;69137;50.878;8.050;2023-12-07T01:39:35;98586.13;;;0.44;100.00
79671;BME280;69137;50.878;8.050;2023-12-07T01:42:01;98589.69;;;0.45;100.00
79671;BME280;69137;50.878;8.050;2023-12-07T01:44:26;98587.59;;;0.47;100.00
79671;BME280;69137;50.878;8.050;2023-12-07T01:46:53;98598.59;;;0.52;100.00
79671;BME280;69137;50.878;8.050;2023-12-07T01:49:19;98594.41;;;0.42;100.00
79671;BME280;69137;50.878;8.050;2023-12-07T01:51:45;98598.59;;;0.52;100.00
79671;BME280;69137;50.878;8.050;2023-12-07T01:54:10;98592.44;;;0.58;100.00
79671;BME280;69137;50.878;8.050;2023-12-07T01:56:36;98599.47;;;0.59;100.00
79671;BME280;69137;50.878;8.050;2023-12-07T01:59:01;98592.63;;;0.50;100.00
79671;BME280;69137;50.878;8.050;2023-12-07T02:01:28;98595.53;;;0.55;100.00
79671;BME280;69137;50.878;8.050;2023-12-07T02:03:54;98597.34;;;0.48;100.00
79671;BME280;69137;50.878;8.050;2023-12-07T02:06:20;98600.63;;;0.43;100.00
79671;BME280;69137;50.878;8.050;2023-12-07T02:08:45;98593.78;;;0.40;100.00
79671;BME280;69137;50.878;8.050;2023-12-07T02:11:11;98598.13;;;0.41;100.00
79671;BME280;69137;50.878;8.050;2023-12-07T02:13:38;98594.19;;;0.44;100.00
79671;BME280;69137;50.878;8.050;2023-12-07T02:16:29;98608.13;;;0.54;100.00
79671;BME280;69137;50.878;8.050;2023-12-07T02:19:03;98603.56;;;0.48;100.00
79671;BME280;69137;50.878;8.050;2023-12-07T02:21:38;98601.03;;;0.47;100.00
79671;BME280;69137;50.878;8.050;2023-12-07T02:24:06;98602.38;;;0.29;100.00
79671;BME280;69137;50.878;8.050;2023-12-07T02:26:36;98602.56;;;0.28;100.00
79671;BME280;69137;50.878;8.050;2023-12-07T02:29:02;98605.59;;;0.18;100.00
79671;BME280;69137;50.878;8.050;2023-12-07T02:31:28;98597.09;;;0.14;100.00
79671;BME280;69137;50.878;8.050;2023-12-07T02:33:54;98600.34;;;0.10;100.00
79671;BME280;69137;50.878;8.050;2023-12-07T02:36:22;98606.38;;;0.12;100.00
79671;BME280;69137;50.878;8.050;2023-12-07T02:38:50;98601.38;;;0.09;100.00
79671;BME280;69137;50.878;8.050;2023-12-07T02:41:18;98603.03;;;0.10;100.00
79671;BME280;69137;50.878;8.050;2023-12-07T02:43:44;98600.81;;;0.13;100.00
79671;BME280;69137;50.878;8.050;2023-12-07T02:46:10;98600.41;;;0.16;100.00
79671;BME280;69137;50.878;8.050;2023-12-07T02:48:35;98602.53;;;0.21;100.00
79671;BME280;69137;50.878;8.050;2023-12-07T02:51:01;98611.81;;;0.18;100.00
79671;BME280;69137;50.878;8.050;2023-12-07T02:53:26;98606.47;;;0.25;100.00
79671;BME280;69137;50.878;8.050;2023-12-07T02:55:51;98594.19;;;0.44;99.99
79671;BME280;69137;50.878;8.050;2023-12-07T02:58:17;98596.78;;;0.31;100.00
79671;BME280;69137;50.878;8.050;2023-12-07T03:00:42;98597.16;;;0.21;100.00
79671;BME280;69137;50.878;8.050;2023-12-07T03:03:08;98608.47;;;0.16;100.00
79671;BME280;69137;50.878;8.050;2023-12-07T03:05:33;98610.72;;;0.13;100.00
79671;BME280;69137;50.878;8.050;2023-12-07T03:07:58;98614.69;;;0.17;100.00
79671;BME280;69137;50.878;8.050;2023-12-07T03:10:24;98621.13;;;0.22;100.00
79671;BME280;69137;50.878;8.050;2023-12-07T03:12:49;98615.97;;;0.21;100.00
79671;BME280;69137;50.878;8.050;2023-12-07T03:15:15;98613.91;;;0.23;100.00
79671;BME280;69137;50.878;8.050;2023-12-07T03:17:40;98619.28;;;0.23;100.00
79671;BME280;69137;50.878;8.050;2023-12-07T03:20:06;98615.38;;;0.26;100.00
79671;BME280;69137;50.878;8.050;2023-12-07T03:22:32;98615.56;;;0.24;100.00
79671;BME280;69137;50.878;8.050;2023-12-07T03:24:58;98619.28;;;0.23;100.00
79671;BME280;69137;50.878;8.050;2023-12-07T03:27:23;98614.34;;;0.27;100.00
79671;BME280;69137;50.878;8.050;2023-12-07T03:29:48;98625.53;;;0.30;100.00
79671;BME280;69137;50.878;8.050;2023-12-07T03:32:14;98629.44;;;0.28;100.00
79671;BME280;69137;50.878;8.050;2023-12-07T03:34:39;98616.66;;;0.30;100.00
79671;BME280;69137;50.878;8.050;2023-12-07T03:37:05;98619.19;;;0.38;100.00
79671;BME280;69137;50.878;8.050;2023-12-07T03:39:30;98610.78;;;0.48;100.00
79671;BME280;69137;50.878;8.050;2023-12-07T03:41:57;98611.78;;;0.47;100.00
79671;BME280;69137;50.878;8.050;2023-12-07T03:44:23;98609.09;;;0.47;100.00
79671;BME280;69137;50.878;8.050;2023-12-07T03:46:48;98611.44;;;0.50;100.00
79671;BME280;69137;50.878;8.050;2023-12-07T03:49:14;98611.63;;;0.48;100.00
79671;BME280;69137;50.878;8.050;2023-12-07T03:51:39;98609.56;;;0.50;100.00
79671;BME280;69137;50.878;8.050;2023-12-07T03:54:05;98604.19;;;0.50;100.00
79671;BME280;69137;50.878;8.050;2023-12-07T03:56:33;98616.75;;;0.43;100.00
79671;BME280;69137;50.878;8.050;2023-12-07T03:58:59;98615.69;;;0.37;100.00
79671;BME280;69137;50.878;8.050;2023-12-07T04:01:25;98610.09;;;0.39;100.00
79671;BME280;69137;50.878;8.050;2023-12-07T04:03:52;98619.75;;;0.33;100.00
79671;BME280;69137;50.878;8.050;2023-12-07T04:06:18;98618.53;;;0.36;100.00
79671;BME280;69137;50.878;8.050;2023-12-07T04:08:44;98611.75;;;0.40;100.00
79671;BME280;69137;50.878;8.050;2023-12-07T04:11:09;98603.56;;;0.48;100.00
79671;BME280;69137;50.878;8.050;2023-12-07T04:13:35;98606.88;;;0.50;100.00
79671;BME280;69137;50.878;8.050;2023-12-07T04:16:00;98610.34;;;0.44;100.00
79671;BME280;69137;50.878;8.050;2023-12-07T04:18:26;98611.94;;;0.38;100.00
79671;BME280;69137;50.878;8.050;2023-12-07T04:20:51;98610.22;;;0.31;100.00
79671;BME280;69137;50.878;8.050;2023-12-07T04:23:16;98614.84;;;0.37;100.00
79671;BME280;69137;50.878;8.050;2023-12-07T04:25:42;98609.00;;;0.33;100.00
79671;BME280;69137;50.878;8.050;2023-12-07T04:28:07;98611.69;;;0.33;100.00
79671;BME280;69137;50.878;8.050;2023-12-07T04:30:33;98605.31;;;0.34;100.00
79671;BME280;69137;50.878;8.050;2023-12-07T04:32:58;98606.00;;;0.43;100.00
79671;BME280;69137;50.878;8.050;2023-12-07T04:35:24;98612.09;;;0.58;100.00
79671;BME280;69137;50.878;8.050;2023-12-07T04:37:49;98610.97;;;0.46;100.00
79671;BME280;69137;50.878;8.050;2023-12-07T04:40:14;98625.78;;;0.35;100.00
79671;BME280;69137;50.878;8.050;2023-12-07T04:42:40;98610.44;;;0.29;100.00
79671;BME280;69137;50.878;8.050;2023-12-07T04:45:06;98625.75;;;0.29;100.00
79671;BME280;69137;50.878;8.050;2023-12-07T04:47:32;98628.63;;;0.27;100.00
79671;BME280;69137;50.878;8.050;2023-12-07T04:49:58;98628.38;;;0.22;100.00
79671;BME280;69137;50.878;8.050;2023-12-07T04:52:23;98625.69;;;0.22;100.00
79671;BME280;69137;50.878;8.050;2023-12-07T04:54:49;98626.97;;;0.26;100.00
79671;BME280;69137;50.878;8.050;2023-12-07T04:57:14;98630.03;;;0.23;100.00
79671;BME280;69137;50.878;8.050;2023-12-07T04:59:40;98634.53;;;0.16;100.00
79671;BME280;69137;50.878;8.050;2023-12-07T05:02:05;98640.66;;;0.10;100.00
79671;BME280;69137;50.878;8.050;2023-12-07T05:04:31;98637.06;;;0.03;100.00
79671;BME280;69137;50.878;8.050;2023-12-07T05:06:58;98634.47;;;0.09;100.00
79671;BME280;69137;50.878;8.050;2023-12-07T05:09:25;98632.72;;;0.02;100.00
79671;BME280;69137;50.878;8.050;2023-12-07T05:11:51;98639.88;;;-0.06;100.00
79671;BME280;69137;50.878;8.050;2023-12-07T05:14:16;98629.28;;;-0.14;100.00
79671;BME280;69137;50.878;8.050;2023-12-07T05:16:42;98639.59;;;-0.17;100.00
79671;BME280;69137;50.878;8.050;2023-12-07T05:19:07;98645.59;;;-0.15;100.00
79671;BME280;69137;50.878;8.050;2023-12-07T05:21:32;98649.03;;;-0.22;100.00
79671;BME280;69137;50.878;8.050;2023-12-07T05:23:58;98648.13;;;-0.29;99.86
79671;BME280;69137;50.878;8.050;2023-12-07T05:26:23;98644.34;;;-0.34;99.63
79671;BME280;69137;50.878;8.050;2023-12-07T05:28:48;98646.78;;;-0.39;100.00
79671;BME280;69137;50.878;8.050;2023-12-07T05:31:16;98644.16;;;-0.33;100.00
79671;BME280;69137;50.878;8.050;2023-12-07T05:33:42;98646.31;;;-0.43;100.00
79671;BME280;69137;50.878;8.050;2023-12-07T05:36:07;98647.72;;;-0.47;100.00
79671;BME280;69137;50.878;8.050;2023-12-07T05:38:33;98651.25;;;-0.47;100.00
79671;BME280;69137;50.878;8.050;2023-12-07T05:40:58;98656.63;;;-0.47;100.00
79671;BME280;69137;50.878;8.050;2023-12-07T05:43:24;98654.19;;;-0.41;100.00
79671;BME280;69137;50.878;8.050;2023-12-07T05:45:50;98658.53;;;-0.40;100.00
79671;BME280;69137;50.878;8.050;2023-12-07T05:48:16;98664.81;;;-0.33;100.00
79671;BME280;69137;50.878;8.050;2023-12-07T05:50:41;98666.41;;;-0.39;100.00
79671;BME280;69137;50.878;8.050;2023-12-07T05:53:07;98662.31;;;-0.35;100.00
79671;BME280;69137;50.878;8.050;2023-12-07T05:55:32;98662.88;;;-0.39;100.00
79671;BME280;69137;50.878;8.050;2023-12-07T05:57:58;98663.34;;;-0.36;100.00
79671;BME280;69137;50.878;8.050;2023-12-07T06:00:23;98665.44;;;-0.31;100.00
79671;BME280;69137;50.878;8.050;2023-12-07T06:02:49;98662.00;;;-0.25;100.00
79671;BME280;69137;50.878;8.050;2023-12-07T06:05:14;98668.22;;;-0.25;100.00
79671;BME280;69137;50.878;8.050;2023-12-07T06:07:40;98675.72;;;-0.20;100.00
79671;BME280;69137;50.878;8.050;2023-12-07T06:10:06;98672.63;;;-0.17;100.00
79671;BME280;69137;50.878;8.050;2023-12-07T06:12:32;98678.66;;;-0.15;100.00
79671;BME280;69137;50.878;8.050;2023-12-07T06:14:58;98675.97;;;-0.15;100.00
79671;BME280;69137;50.878;8.050;2023-12-07T06:17:23;98679.09;;;-0.11;100.00
79671;BME280;69137;50.878;8.050;2023-12-07T06:19:48;98679.19;;;-0.05;100.00
79671;BME280;69137;50.878;8.050;2023-12-07T06:22:14;98670.03;;;-0.10;100.00
79671;BME280;69137;50.878;8.050;2023-12-07T06:24:39;98676.34;;;-0.18;100.00
79671;BME280;69137;50.878;8.050;2023-12-07T06:27:05;98688.38;;;-0.14;100.00
79671;BME280;69137;50.878;8.050;2023-12-07T06:29:30;98691.53;;;-0.10;100.00
79671;BME280;69137;50.878;8.050;2023-12-07T06:31:57;98682.03;;;-0.06;100.00
79671;BME280;69137;50.878;8.050;2023-12-07T06:34:22;98685.19;;;-0.03;100.00
79671;BME280;69137;50.878;8.050;2023-12-07T06:36:47;98688.06;;;-0.04;100.00
79671;BME280;69137;50.878;8.050;2023-12-07T06:39:13;98686.84;;;-0.02;100.00
79671;BME280;69137;50.878;8.050;2023-12-07T06:41:39;98696.16;;;0.03;100.00
79671;BME280;69137;50.878;8.050;2023-12-07T06:44:06;98692.66;;;0.02;100.00
79671;BME280;69137;50.878;8.050;2023-12-07T06:46:31;98701.81;;;0.08;100.00
79671;BME280;69137;50.878;8.050;2023-12-07T06:48:57;98692.53;;;0.10;100.00
79671;BME280;69137;50.878;8.050;2023-12-07T06:51:22;98686.47;;;0.02;100.00
79671;BME280;69137;50.878;8.050;2023-12-07T06:53:48;98688.94;;;-0.18;100.00
79671;BME280;69137;50.878;8.050;2023-12-07T06:56:13;98692.91;;;-0.14;100.00
79671;BME280;69137;50.878;8.050;2023-12-07T06:58:40;98691.53;;;-0.10;100.00
79671;BME280;69137;50.878;8.050;2023-12-07T07:01:05;98694.47;;;-0.05;100.00
79671;BME280;69137;50.878;8.050;2023-12-07T07:03:31;98699.06;;;0.01;100.00
79671;BME280;69137;50.878;8.050;2023-12-07T07:05:56;98702.78;;;0.00;100.00
79671;BME280;69137;50.878;8.050;2023-12-07T07:08:22;98700.34;;;0.05;100.00
79671;BME280;69137;50.878;8.050;2023-12-07T07:10:47;98696.91;;;0.11;100.00
79671;BME280;69137;50.878;8.050;2023-12-07T07:13:12;98691.31;;;0.13;100.00
79671;BME280;69137;50.878;8.050;2023-12-07T07:15:41;98700.41;;;0.12;100.00
79671;BME280;69137;50.878;8.050;2023-12-07T07:18:07;98702.41;;;0.03;100.00
79671;BME280;69137;50.878;8.050;2023-12-07T07:20:33;98700.72;;;0.02;100.00
79671;BME280;69137;50.878;8.050;2023-12-07T07:22:59;98695.16;;;0.04;100.00
79671;BME280;69137;50.878;8.050;2023-12-07T07:25:24;98696.25;;;-0.12;100.00
79671;BME280;69137;50.878;8.050;2023-12-07T07:27:49;98691.25;;;-0.15;100.00
79671;BME280;69137;50.878;8.050;2023-12-07T07:30:15;98686.50;;;-0.13;100.00
79671;BME280;69137;50.878;8.050;2023-12-07T07:32:40;98682.56;;;-0.17;100.00
79671;BME280;69137;50.878;8.050;2023-12-07T07:35:06;98674.22;;;-0.23;100.00
79671;BME280;69137;50.878;8.050;2023-12-07T07:37:33;98680.50;;;-0.15;100.00
79671;BME280;69137;50.878;8.050;2023-12-07T07:39:59;98670.34;;;-0.20;100.00
79671;BME280;69137;50.878;8.050;2023-12-07T07:42:25;98662.16;;;-0.12;100.00
79671;BME280;69137;50.878;8.050;2023-12-07T07:44:50;98663.63;;;-0.09;100.00
79671;BME280;69137;50.878;8.050;2023-12-07T07:47:16;98676.09;;;-0.02;100.00
79671;BME280;69137;50.878;8.050;2023-12-07T07:49:41;98673.94;;;-0.13;100.00
79671;BME280;69137;50.878;8.050;2023-12-07T07:52:07;98678.72;;;-0.08;100.00
79671;BME280;69137;50.878;8.050;2023-12-07T07:54:32;98674.19;;;-0.08;100.00
79671;BME280;69137;50.878;8.050;2023-12-07T07:56:58;98671.13;;;-0.05;100.00
79671;BME280;69137;50.878;8.050;2023-12-07T07:59:23;98665.34;;;-0.02;100.00
79671;BME280;69137;50.878;8.050;2023-12-07T08:01:49;98668.75;;;0.07;100.00
79671;BME280;69137;50.878;8.050;2023-12-07T08:04:15;98666.69;;;0.09;100.00
79671;BME280;69137;50.878;8.050;2023-12-07T08:06:41;98656.25;;;-0.01;100.00
79671;BME280;69137;50.878;8.050;2023-12-07T08:09:08;98671.50;;;0.14;100.00
79671;BME280;69137;50.878;8.050;2023-12-07T08:11:34;98659.69;;;0.08;99.89
79671;BME280;69137;50.878;8.050;2023-12-07T08:13:59;98652.34;;;0.02;100.00
79671;BME280;69137;50.878;8.050;2023-12-07T08:16:24;98664.06;;;-0.06;99.57
79671;BME280;69137;50.878;8.050;2023-12-07T08:18:50;98669.31;;;0.03;100.00
79671;BME280;69137;50.878;8.050;2023-12-07T08:21:22;98662.72;;;0.05;100.00
79671;BME280;69137;50.878;8.050;2023-12-07T08:23:48;98664.84;;;0.10;100.00
79671;BME280;69137;50.878;8.050;2023-12-07T08:26:14;98660.78;;;0.20;100.00
79671;BME280;69137;50.878;8.050;2023-12-07T08:28:40;98656.53;;;0.26;99.54
79671;BME280;69137;50.878;8.050;2023-12-07T08:31:06;98652.56;;;0.22;99.75
79671;BME280;69137;50.878;8.050;2023-12-07T08:33:32;98659.06;;;0.13;99.68
79671;BME280;69137;50.878;8.050;2023-12-07T08:35:59;98647.75;;;0.17;100.00
79671;BME280;69137;50.878;8.050;2023-12-07T08:38:25;98647.00;;;0.24;99.70
79671;BME280;69137;50.878;8.050;2023-12-07T08:40:50;98658.81;;;0.29;99.05
79671;BME280;69137;50.878;8.050;2023-12-07T08:43:16;98650.38;;;0.32;99.17
79671;BME280;69137;50.878;8.050;2023-12-07T08:45:41;98651.13;;;0.48;99.84
79671;BME280;69137;50.878;8.050;2023-12-07T08:48:07;98646.28;;;0.36;98.86
79671;BME280;69137;50.878;8.050;2023-12-07T08:50:32;98654.63;;;0.48;98.66
79671;BME280;69137;50.878;8.050;2023-12-07T08:52:58;98653.81;;;0.48;98.68
79671;BME280;69137;50.878;8.050;2023-12-07T08:55:23;98657.75;;;0.52;99.48
79671;BME280;69137;50.878;8.050;2023-12-07T08:57:48;98653.25;;;0.59;99.08
79671;BME280;69137;50.878;8.050;2023-12-07T09:00:14;98657.63;;;0.60;99.48
79671;BME280;69137;50.878;8.050;2023-12-07T09:02:40;98656.66;;;0.68;99.54
79671;BME280;69137;50.878;8.050;2023-12-07T09:05:06;98669.06;;;0.69;99.20
79671;BME280;69137;50.878;8.050;2023-12-07T09:07:31;98668.09;;;0.76;99.08
79671;BME280;69137;50.878;8.050;2023-12-07T09:09:56;98666.84;;;0.79;99.09
79671;BME280;69137;50.878;8.050;2023-12-07T09:12:22;98675.34;;;0.82;99.11
79671;BME280;69137;50.878;8.050;2023-12-07T09:14:47;98673.94;;;0.86;99.28
79671;BME280;69137;50.878;8.050;2023-12-07T09:17:12;98676.47;;;0.95;98.61
79671;BME280;69137;50.878;8.050;2023-12-07T09:19:38;98678.13;;;0.96;98.41
79671;BME280;69137;50.878;8.050;2023-12-07T09:22:03;98669.00;;;0.90;96.39
79671;BME280;69137;50.878;8.050;2023-12-07T09:24:29;98663.44;;;0.98;96.49
79671;BME280;69137;50.878;8.050;2023-12-07T09:26:54;98664.72;;;1.02;96.29
79671;BME280;69137;50.878;8.050;2023-12-07T09:29:19;98658.72;;;1.00;95.59
79671;BME280;69137;50.878;8.050;2023-12-07T09:31:45;98661.44;;;1.07;95.42
79671;BME280;69137;50.878;8.050;2023-12-07T09:34:10;98662.84;;;1.03;96.03
79671;BME280;69137;50.878;8.050;2023-12-07T09:36:36;98666.91;;;1.27;96.54
79671;BME280;69137;50.878;8.050;2023-12-07T09:39:02;98677.78;;;1.40;95.64
79671;BME280;69137;50.878;8.050;2023-12-07T09:41:28;98680.06;;;1.50;95.22
79671;BME280;69137;50.878;8.050;2023-12-07T09:43:54;98684.63;;;1.49;94.55
79671;BME280;69137;50.878;8.050;2023-12-07T09:46:20;98676.56;;;1.49;94.34
79671;BME280;69137;50.878;8.050;2023-12-07T09:48:48;98689.25;;;1.62;93.35
79671;BME280;69137;50.878;8.050;2023-12-07T09:51:15;98681.56;;;1.59;94.06
79671;BME280;69137;50.878;8.050;2023-12-07T09:53:42;98679.09;;;1.64;92.44
79671;BME280;69137;50.878;8.050;2023-12-07T09:56:09;98674.34;;;1.66;92.47
79671;BME280;69137;50.878;8.050;2023-12-07T09:58:34;98661.66;;;1.53;91.25
79671;BME280;69137;50.878;8.050;2023-12-07T10:01:00;98658.97;;;1.60;91.26
79671;BME280;69137;50.878;8.050;2023-12-07T10:03:25;98658.38;;;1.65;89.46
79671;BME280;69137;50.878;8.050;2023-12-07T10:05:58;98661.25;;;1.57;90.65
79671;BME280;69137;50.878;8.050;2023-12-07T10:08:26;98659.00;;;1.67;90.94
79671;BME280;69137;50.878;8.050;2023-12-07T10:11:06;98648.47;;;1.79;89.60
79671;BME280;69137;50.878;8.050;2023-12-07T10:13:33;98642.69;;;1.88;89.04
79671;BME280;69137;50.878;8.050;2023-12-07T10:16:09;98634.66;;;2.22;89.03
79671;BME280;69137;50.878;8.050;2023-12-07T10:18:36;98641.28;;;2.72;86.83
79671;BME280;69137;50.878;8.050;2023-12-07T10:21:01;98642.66;;;3.15;83.11
79671;BME280;69137;50.878;8.050;2023-12-07T10:23:28;98631.44;;;3.63;83.55
79671;BME280;69137;50.878;8.050;2023-12-07T10:25:53;98639.16;;;3.98;81.24
79671;BME280;69137;50.878;8.050;2023-12-07T10:28:20;98630.69;;;4.19;80.00
79671;BME280;69137;50.878;8.050;2023-12-07T10:30:46;98626.94;;;4.20;80.68
79671;BME280;69137;50.878;8.050;2023-12-07T10:33:11;98630.88;;;4.24;77.36
79671;BME280;69137;50.878;8.050;2023-12-07T10:35:42;98633.19;;;4.21;77.82
79671;BME280;69137;50.878;8.050;2023-12-07T10:38:08;98634.03;;;3.89;79.88
79671;BME280;69137;50.878;8.050;2023-12-07T10:40:34;98616.19;;;3.37;83.42
79671;BME280;69137;50.878;8.050;2023-12-07T10:43:06;98620.63;;;4.01;81.39
79671;BME280;69137;50.878;8.050;2023-12-07T10:45:32;98618.50;;;4.35;79.03
79671;BME280;69137;50.878;8.050;2023-12-07T10:48:05;98620.34;;;3.84;81.70
79671;BME280;69137;50.878;8.050;2023-12-07T10:50:34;98637.72;;;3.57;81.39
79671;BME280;69137;50.878;8.050;2023-12-07T10:53:05;98619.50;;;3.45;81.38
79671;BME280;69137;50.878;8.050;2023-12-07T10:55:41;98634.06;;;3.38;80.91
79671;BME280;69137;50.878;8.050;2023-12-07T10:58:09;98634.75;;;3.20;80.17
79671;BME280;69137;50.878;8.050;2023-12-07T11:00:40;98624.28;;;2.65;85.28
79671;BME280;69137;50.878;8.050;2023-12-07T11:03:06;98626.78;;;2.47;86.02
79671;BME280;69137;50.878;8.050;2023-12-07T11:05:31;98620.34;;;2.28;86.26
79671;BME280;69137;50.878;8.050;2023-12-07T11:08:08;98616.19;;;2.12;86.32
79671;BME280;69137;50.878;8.050;2023-12-07T11:13:27;98588.63;;;1.90;87.52
79671;BME280;69137;50.878;8.050;2023-12-07T11:15:55;98599.09;;;1.58;88.53
79671;BME280;69137;50.878;8.050;2023-12-07T11:18:20;98590.13;;;1.31;90.22
79671;BME280;69137;50.878;8.050;2023-12-07T11:20:46;98590.03;;;1.04;91.00
79671;BME280;69137;50.878;8.050;2023-12-07T11:23:16;98571.88;;;1.26;90.54
79671;BME280;69137;50.878;8.050;2023-12-07T11:25:44;98570.22;;;1.32;90.26
79671;BME280;69137;50.878;8.050;2023-12-07T11:28:11;98572.50;;;1.28;89.87
79671;BME280;69137;50.878;8.050;2023-12-07T11:30:37;98569.38;;;1.18;89.98
79671;BME280;69137;50.878;8.050;2023-12-07T11:33:04;98558.50;;;0.92;90.77
79671;BME280;69137;50.878;8.050;2023-12-07T11:35:30;98566.34;;;0.93;91.21
79671;BME280;69137;50.878;8.050;2023-12-07T11:40:35;98563.19;;;0.83;91.31
79671;BME280;69137;50.878;8.050;2023-12-07T11:43:01;98562.38;;;0.82;91.14
79671;BME280;69137;50.878;8.050;2023-12-07T11:45:36;98552.84;;;0.80;91.40
79671;BME280;69137;50.878;8.050;2023-12-07T11:48:15;98551.44;;;0.84;90.54
79671;BME280;69137;50.878;8.050;2023-12-07T11:51:13;98549.59;;;0.91;91.31
79671;BME280;69137;50.878;8.050;2023-12-07T11:53:38;98539.00;;;0.83;92.18
79671;BME280;69137;50.878;8.050;2023-12-07T11:56:05;98532.78;;;0.82;91.77
79671;BME280;69137;50.878;8.050;2023-12-07T11:58:32;98525.31;;;0.78;92.11
79671;BME280;69137;50.878;8.050;2023-12-07T12:00:59;98526.00;;;0.86;91.83
79671;BME280;69137;50.878;8.050;2023-12-07T12:03:26;98510.91;;;0.92;91.98
79671;BME280;69137;50.878;8.050;2023-12-07T12:05:52;98516.34;;;1.12;92.20
79671;BME280;69137;50.878;8.050;2023-12-07T12:08:18;98515.94;;;1.15;91.06
79671;BME280;69137;50.878;8.050;2023-12-07T12:10:45;98508.09;;;1.20;90.90
79671;BME280;69137;50.878;8.050;2023-12-07T12:13:11;98499.63;;;1.37;90.56
79671;BME280;69137;50.878;8.050;2023-12-07T12:15:38;98486.81;;;1.45;90.77
79671;BME280;69137;50.878;8.050;2023-12-07T12:18:05;98483.50;;;1.50;90.13
79671;BME280;69137;50.878;8.050;2023-12-07T12:20:31;98480.59;;;1.51;90.29
79671;BME280;69137;50.878;8.050;2023-12-07T12:22:58;98490.13;;;1.54;89.83
79671;BME280;69137;50.878;8.050;2023-12-07T12:25:28;98481.44;;;1.79;93.28
79671;BME280;69137;50.878;8.050;2023-12-07T12:27:56;98479.78;;;1.78;89.79
79671;BME280;69137;50.878;8.050;2023-12-07T12:30:23;98481.88;;;1.82;89.43
79671;BME280;69137;50.878;8.050;2023-12-07T12:32:50;98472.13;;;1.81;89.14
79671;BME280;69137;50.878;8.050;2023-12-07T12:35:17;98473.16;;;1.73;89.62
79671;BME280;69137;50.878;8.050;2023-12-07T12:37:46;98458.22;;;1.71;89.50
79671;BME280;69137;50.878;8.050;2023-12-07T12:40:15;98461.97;;;1.70;89.45
79671;BME280;69137;50.878;8.050;2023-12-07T12:42:43;98449.31;;;1.70;89.44
79671;BME280;69137;50.878;8.050;2023-12-07T12:45:09;98447.69;;;1.56;89.80
79671;BME280;69137;50.878;8.050;2023-12-07T12:47:39;98450.16;;;1.71;89.82
79671;BME280;69137;50.878;8.050;2023-12-07T12:50:06;98458.25;;;1.64;89.76
79671;BME280;69137;50.878;8.050;2023-12-07T12:52:32;98458.44;;;1.63;90.12
79671;BME280;69137;50.878;8.050;2023-12-07T12:54:58;98454.31;;;1.67;90.23
79671;BME280;69137;50.878;8.050;2023-12-07T12:57:24;98449.31;;;1.70;90.33
79671;BME280;69137;50.878;8.050;2023-12-07T12:59:52;98445.81;;;1.77;89.74
79671;BME280;69137;50.878;8.050;2023-12-07T13:02:19;98447.88;;;1.74;89.32